createdAt,value
2018-12-15T00:01:05.950Z,102083.44
2018-12-15T00:03:43.879Z,102077.60
2018-12-15T00:06:13.375Z,102074.66
2018-12-15T00:08:49.999Z,102075.89
2018-12-15T00:11:22.769Z,102075.73
2018-12-15T00:13:53.321Z,102078.83
2018-12-15T00:16:26.284Z,102080.77
2018-12-15T00:18:55.706Z,102079.46
2018-12-15T00:21:29.062Z,102088.27
2018-12-15T00:24:05.132Z,102077.86
2018-12-15T00:26:41.707Z,102086.09
2018-12-15T00:29:17.778Z,102079.64
2018-12-15T00:31:52.938Z,102083.77
2018-12-15T00:34:23.626Z,102088.91
2018-12-15T00:36:56.574Z,102083.29
2018-12-15T00:39:31.825Z,102084.67
2018-12-15T00:42:04.368Z,102087.05
2018-12-15T00:44:43.254Z,102087.37
2018-12-15T00:47:26.173Z,102087.86
2018-12-15T00:49:57.665Z,102086.30
2018-12-15T00:52:30.510Z,102090.54
2018-12-15T00:55:07.184Z,102094.73
2018-12-15T00:57:43.317Z,102094.58
2018-12-15T01:00:24.458Z,102097.27
2018-12-15T01:02:55.815Z,102099.71
2018-12-15T01:05:32.215Z,102105.41
2018-12-15T01:08:09.376Z,102104.66
2018-12-15T01:10:44.569Z,102106.45
2018-12-15T01:13:17.195Z,102100.47
2018-12-15T01:15:54.959Z,102099.24
2018-12-15T01:18:35.579Z,102100.62
2018-12-15T01:24:03.092Z,102102.59
2018-12-15T01:26:41.577Z,102100.34
2018-12-15T01:29:20.607Z,102103.09
2018-12-15T01:31:58.662Z,102101.23
2018-12-15T01:34:29.733Z,102110.64
2018-12-15T01:37:09.565Z,102100.30
2018-12-15T01:39:42.163Z,101981.23
2018-12-15T01:42:18.447Z,102100.22
2018-12-15T01:44:51.019Z,102105.20
2018-12-15T01:47:28.648Z,102105.13
2018-12-15T01:50:08.913Z,102095.68
2018-12-15T01:52:40.388Z,102104.53
2018-12-15T01:55:18.024Z,102102.67
2018-12-15T01:57:51.365Z,102108.02
2018-12-15T02:00:30.882Z,102097.06
2018-12-15T02:03:03.447Z,102104.05
2018-12-15T02:05:42.111Z,102102.08
2018-12-15T02:08:20.887Z,102107.95
2018-12-15T02:10:55.083Z,102099.92
2018-12-15T02:13:28.043Z,102099.58
2018-12-15T02:16:06.214Z,102095.41
2018-12-15T02:18:41.439Z,102096.14
2018-12-15T02:21:20.368Z,102093.44
2018-12-15T02:23:53.681Z,102098.41
2018-12-15T02:26:30.335Z,102091.50
2018-12-15T02:29:06.575Z,102092.72
2018-12-15T02:31:45.401Z,102089.11
2018-12-15T02:34:25.707Z,102092.64
2018-12-15T02:37:07.568Z,102088.50
2018-12-15T02:39:44.545Z,102083.12
2018-12-15T02:42:28.923Z,102085.61
2018-12-15T02:45:08.474Z,102087.92
2018-12-15T02:47:43.851Z,102082.12
2018-12-15T02:50:16.333Z,102083.50
2018-12-15T02:52:49.045Z,102079.22
2018-12-15T02:55:31.836Z,102078.06
2018-12-15T02:58:11.849Z,102082.38
2018-12-15T03:00:52.263Z,102084.86
2018-12-15T03:03:24.967Z,102077.05
2018-12-15T03:09:10.073Z,102074.37
2018-12-15T03:11:42.570Z,102076.56
2018-12-15T03:14:19.042Z,102082.20
2018-12-15T03:17:07.421Z,102075.46
2018-12-15T03:19:49.848Z,102075.75
2018-12-15T03:22:24.887Z,102075.59
2018-12-15T03:24:59.763Z,102078.28
2018-12-15T03:27:32.366Z,102076.41
2018-12-15T03:30:09.435Z,102073.33
2018-12-15T03:32:41.986Z,102080.72
2018-12-15T03:35:18.646Z,102084.22
2018-12-15T03:37:55.983Z,102087.56
2018-12-15T03:40:32.640Z,102095.31
2018-12-15T03:43:05.124Z,102088.61
2018-12-15T03:45:43.513Z,102091.00
2018-12-15T03:48:20.006Z,102089.17
2018-12-15T03:51:01.144Z,102094.08
2018-12-15T03:53:32.226Z,102093.22
2018-12-15T03:56:09.147Z,102097.59
2018-12-15T03:58:47.403Z,102093.48
2018-12-15T04:01:25.904Z,102099.31
2018-12-15T04:04:03.191Z,102098.22
2018-12-15T04:06:41.414Z,102098.41
2018-12-15T04:09:18.572Z,102096.90
2018-12-15T04:11:51.435Z,102097.98
2018-12-15T04:14:28.052Z,102101.97
2018-12-15T04:17:05.091Z,102105.77
2018-12-15T04:19:41.979Z,102113.22
2018-12-15T04:22:20.396Z,102112.81
2018-12-15T04:24:59.034Z,102111.34
2018-12-15T04:27:34.650Z,102107.55
2018-12-15T04:30:10.802Z,102113.50
2018-12-15T04:32:45.341Z,102118.34
2018-12-15T04:35:22.905Z,102120.59
2018-12-15T04:37:55.686Z,102120.91
2018-12-15T04:40:32.372Z,102120.55
2018-12-15T04:43:05.432Z,102118.72
2018-12-15T04:45:44.990Z,102110.06
2018-12-15T04:48:21.299Z,102111.36
2018-12-15T04:50:58.912Z,102115.95
2018-12-15T04:53:30.471Z,102108.76
2018-12-15T04:56:06.773Z,102117.55
2018-12-15T04:58:44.851Z,102112.34
2018-12-15T05:01:21.774Z,102116.12
2018-12-15T05:03:59.282Z,102121.64
2018-12-15T05:06:35.254Z,102119.16
2018-12-15T05:09:12.810Z,102111.25
2018-12-15T05:11:45.733Z,102118.27
2018-12-15T05:14:16.593Z,102113.52
2018-12-15T05:20:08.070Z,102119.77
2018-12-15T05:22:41.046Z,102119.97
2018-12-15T05:25:18.230Z,102118.55
2018-12-15T05:27:54.128Z,102119.84
2018-12-15T05:30:37.062Z,102121.02
2018-12-15T05:33:11.934Z,102118.98
2018-12-15T05:35:53.600Z,102122.08
2018-12-15T05:38:43.099Z,102117.81
2018-12-15T05:41:19.731Z,102119.81
2018-12-15T05:50:04.139Z,102125.27
2018-12-15T06:05:10.982Z,102127.41
2018-12-15T06:07:58.827Z,102130.88
2018-12-15T06:10:37.038Z,102136.31
2018-12-15T06:19:20.443Z,102133.80
2018-12-15T06:21:53.395Z,102135.58
2018-12-15T06:24:35.450Z,102141.09
2018-12-15T06:27:13.878Z,102137.98
2018-12-15T06:29:49.782Z,102139.44
2018-12-15T06:32:25.486Z,102141.63
2018-12-15T06:35:05.450Z,102145.13
2018-12-15T06:37:50.650Z,102144.89
2018-12-15T06:40:29.625Z,102140.38
2018-12-15T06:43:00.993Z,102140.94
2018-12-15T06:45:40.868Z,102143.95
2018-12-15T06:48:10.531Z,102145.98
2018-12-15T06:50:39.899Z,102143.51
2018-12-15T06:53:09.306Z,102141.55
2018-12-15T06:55:38.743Z,102138.06
2018-12-15T06:58:18.109Z,102144.16
2018-12-15T07:00:50.110Z,102148.87
2018-12-15T07:03:19.516Z,102146.47
2018-12-15T07:05:49.385Z,102150.77
2018-12-15T07:08:19.097Z,102151.22
2018-12-15T07:10:48.905Z,102153.16
2018-12-15T07:13:18.407Z,102152.84
2018-12-15T07:15:48.329Z,102159.95
2018-12-15T07:18:17.709Z,102162.45
2018-12-15T07:20:47.482Z,102159.34
2018-12-15T07:23:17.227Z,102162.55
2018-12-15T07:25:46.925Z,102158.32
2018-12-15T07:28:16.306Z,102153.11
2018-12-15T07:30:46.121Z,102157.24
2018-12-15T07:33:15.869Z,102158.87
2018-12-15T07:35:45.309Z,102155.17
2018-12-15T07:38:14.712Z,102156.88
2018-12-15T07:40:44.435Z,102158.47
2018-12-15T07:43:14.242Z,102160.58
2018-12-15T07:45:44.037Z,102161.48
2018-12-15T07:48:13.331Z,102162.89
2018-12-15T07:50:43.108Z,102165.22
2018-12-15T07:53:12.512Z,102164.27
2018-12-15T07:55:42.313Z,102167.02
2018-12-15T07:58:11.741Z,102159.20
2018-12-15T08:00:46.230Z,102159.39
2018-12-15T08:03:15.653Z,102173.06
2018-12-15T08:05:45.023Z,102167.25
2018-12-15T08:08:14.772Z,102165.75
2018-12-15T08:11:05.241Z,102166.97
2018-12-15T08:16:41.477Z,102166.30
2018-12-15T08:19:12.312Z,102167.32
2018-12-15T08:21:57.676Z,102168.63
2018-12-15T08:24:37.144Z,102165.45
2018-12-15T08:30:17.830Z,102162.12
2018-12-15T08:36:02.821Z,102158.08
2018-12-15T08:38:32.569Z,102169.05
2018-12-15T08:41:02.339Z,102158.73
2018-12-15T08:43:31.768Z,102165.36
2018-12-15T08:46:03.077Z,102159.82
2018-12-15T08:48:32.855Z,102165.93
2018-12-15T08:51:02.592Z,102170.58
2018-12-15T08:53:32.300Z,102170.72
2018-12-15T08:56:01.740Z,102174.48
2018-12-15T08:58:31.099Z,102179.37
2018-12-15T09:01:00.472Z,102182.80
2018-12-15T09:03:29.841Z,102179.94
2018-12-15T09:05:59.582Z,102180.61
2018-12-15T09:08:29.315Z,102182.58
2018-12-15T09:10:59.781Z,102181.35
2018-12-15T09:13:29.669Z,102184.59
2018-12-15T09:15:59.481Z,102178.41
2018-12-15T09:18:29.292Z,102184.37
2018-12-15T09:20:59.039Z,102178.81
2018-12-15T09:23:28.372Z,102177.11
2018-12-15T09:25:58.115Z,102169.28
2018-12-15T09:28:27.780Z,102170.09
2018-12-15T09:30:57.169Z,102162.24
2018-12-15T09:33:26.622Z,102162.70
2018-12-15T09:36:16.836Z,102159.76
2018-12-15T09:44:24.682Z,102151.81
2018-12-15T09:46:56.015Z,102152.08
2018-12-15T09:49:28.991Z,102150.39
2018-12-15T09:52:04.252Z,102151.04
2018-12-15T09:54:52.462Z,102148.45
2018-12-15T10:03:32.335Z,102145.91
2018-12-15T10:06:02.030Z,102139.88
2018-12-15T10:08:32.760Z,102139.47
2018-12-15T10:11:02.144Z,102143.74
2018-12-15T10:13:42.033Z,102143.80
2018-12-15T10:16:24.760Z,102141.74
2018-12-15T10:18:54.895Z,102139.29
2018-12-15T10:27:55.726Z,102127.67
2018-12-15T10:33:33.617Z,102122.86
2018-12-15T10:36:06.404Z,102120.66
2018-12-15T10:38:44.090Z,102125.13
2018-12-15T10:41:15.947Z,102118.50
2018-12-15T10:44:06.070Z,102113.05
2018-12-15T10:49:42.747Z,102109.95
2018-12-15T10:55:42.530Z,102101.51
2018-12-15T10:58:11.968Z,102108.70
2018-12-15T11:00:46.998Z,102101.63
2018-12-15T11:03:16.394Z,102102.27
2018-12-15T11:05:46.130Z,102094.77
2018-12-15T11:08:15.510Z,102101.63
2018-12-15T11:10:45.506Z,102095.61
2018-12-15T11:13:15.320Z,102093.52
2018-12-15T11:15:45.058Z,102093.95
2018-12-15T11:18:14.803Z,102089.95
2018-12-15T11:20:45.751Z,102087.34
2018-12-15T11:23:19.604Z,102082.45
2018-12-15T11:25:49.383Z,102083.25
2018-12-15T11:31:40.770Z,102080.52
2018-12-15T11:46:36.200Z,102068.94
2018-12-15T11:49:11.896Z,102066.58
2018-12-15T12:18:26.568Z,102052.33
2018-12-15T12:20:56.316Z,102047.48
2018-12-15T12:23:26.044Z,102055.88
2018-12-15T12:26:03.106Z,102044.38
2018-12-15T12:28:32.778Z,102044.88
2018-12-15T12:31:02.615Z,102050.18
2018-12-15T12:33:32.197Z,102053.13
2018-12-15T12:36:01.931Z,102053.36
2018-12-15T12:38:33.023Z,102047.86
2018-12-15T12:41:15.807Z,102054.61
2018-12-15T12:43:50.890Z,102057.33
2018-12-15T12:46:20.528Z,102052.66
2018-12-15T12:48:51.000Z,102053.76
2018-12-15T12:51:24.056Z,102051.16
2018-12-15T12:53:57.484Z,102049.98
2018-12-15T12:56:27.513Z,102047.37
2018-12-15T12:59:00.646Z,102052.89
2018-12-15T13:04:23.686Z,102041.89
2018-12-15T13:06:53.206Z,102038.73
2018-12-15T13:09:23.478Z,102041.27
2018-12-15T13:11:53.416Z,102047.24
2018-12-15T13:14:23.745Z,102045.90
2018-12-15T13:16:55.170Z,102044.67
2018-12-15T13:19:24.817Z,102040.86
2018-12-15T13:21:54.520Z,102039.48
2018-12-15T13:24:27.236Z,102037.36
2018-12-15T13:26:59.288Z,102045.08
2018-12-15T13:29:29.279Z,102052.08
2018-12-15T13:31:59.341Z,102056.87
2018-12-15T13:34:28.858Z,102051.28
2018-12-15T13:36:58.324Z,102046.97
2018-12-15T13:39:42.774Z,102047.27
2018-12-15T13:42:12.382Z,102041.23
2018-12-15T13:44:42.475Z,102045.49
2018-12-15T13:47:11.897Z,102042.41
2018-12-15T13:49:41.411Z,102045.49
2018-12-15T13:52:11.398Z,102040.45
2018-12-15T13:54:41.394Z,102042.98
2018-12-15T13:57:14.213Z,102043.53
2018-12-15T13:59:46.253Z,102034.14
2018-12-15T14:02:15.775Z,102036.58
2018-12-15T14:04:45.758Z,102036.09
2018-12-15T14:07:15.742Z,102039.48
2018-12-15T14:09:45.401Z,102032.87
2018-12-15T14:12:19.795Z,102031.98
2018-12-15T14:14:49.396Z,102034.14
2018-12-15T14:17:21.001Z,102031.53
2018-12-15T14:19:50.831Z,102023.16
2018-12-15T14:22:20.257Z,101971.16
2018-12-15T14:24:49.682Z,102018.25
2018-12-15T14:27:19.149Z,102020.09
2018-12-15T14:29:48.949Z,102017.38
2018-12-15T14:38:24.872Z,102013.27
2018-12-15T14:40:56.123Z,102021.54
2018-12-15T14:43:31.678Z,102011.38
2018-12-15T14:46:19.000Z,102017.81
2018-12-15T14:48:48.402Z,102013.50
2018-12-15T14:51:24.172Z,102022.98
2018-12-15T14:54:17.638Z,102012.13
2018-12-15T14:56:55.213Z,102017.59
2018-12-15T14:59:33.088Z,102014.99
2018-12-15T15:04:01.538Z,102014.92
2018-12-15T15:06:34.416Z,102015.52
2018-12-15T15:09:09.149Z,102026.32
2018-12-15T15:11:49.579Z,102021.59
2018-12-15T15:14:34.144Z,102026.45
2018-12-15T15:28:29.822Z,102011.91
2018-12-15T18:19:28.768Z,101901.47
2018-12-15T18:21:58.614Z,101889.98
2018-12-15T18:24:28.466Z,101889.09
2018-12-15T18:26:57.979Z,101885.73
2018-12-15T18:29:27.946Z,101882.72
2018-12-15T18:31:57.661Z,101881.35
2018-12-15T18:34:27.611Z,101873.61
2018-12-15T18:36:57.098Z,101860.73
2018-12-15T18:39:26.946Z,101863.27
2018-12-15T18:41:56.439Z,101864.73
2018-12-15T18:44:25.955Z,101863.25
2018-12-15T18:46:55.826Z,101855.44
2018-12-15T18:49:25.303Z,101847.28
2018-12-15T18:51:56.352Z,101842.20
2018-12-15T18:54:26.191Z,101846.33
2018-12-15T18:56:56.934Z,101844.86
2018-12-15T18:59:27.295Z,101844.79
2018-12-15T19:05:29.887Z,101847.26
2018-12-15T19:08:00.486Z,101842.12
